• Join FlightAware (Why Join?)
  • Login
  • US Flag 
06:57AM EDT


 

Airport Tracker/Info


-or-


 

Live Flight TrackerFlight Track Log ✈ BAW1385 ✈ 15-Aug-2013 ✈ EGCC / MAN - EGLL / LHR

Flight Track Log - Related Links

Times and Time Zones

All times are in EDT time to prevent confusion due to time zone crossing. See the BAW1385 flight status page for this flight to view local times or setup timezone preferences in your user account.

Time Position Orientation Groundspeed Altitude Reporting Facility
EDT Latitude Longitude Course Direction KTS MPH feet Rate Location/Type
02:36AM 53.3033 -2.2237 149° Southeast  Level Estimated
02:37AM 53.2528 -2.1727 149° Southeast  Level Estimated
02:38AM 53.2023 -2.1217 149° Southeast  Level Estimated
02:39AM 53.1518 -2.0708 149° Southeast  Level Estimated
02:40AM 53.1012 -2.0201 149° Southeast  Level Estimated
02:41AM 53.0507 -1.9695 149° Southeast  Level Estimated
02:42AM 53.0001 -1.9190 149° Southeast  Level Estimated
02:43AM 52.9495 -1.8686 149° Southeast  Level Estimated
02:44AM 52.8988 -1.8184 149° Southeast  Level Estimated
02:45AM 52.8482 -1.7682 149° Southeast  Level Estimated
02:46AM 52.7975 -1.7182 149° Southeast  Level Estimated
02:47AM 52.7468 -1.6683 149° Southeast  Level Estimated
02:48AM 52.6961 -1.6185 149° Southeast  Level Estimated
02:49AM 52.6454 -1.5688 149° Southeast  Level Estimated
02:50AM 52.5947 -1.5193 149° Southeast  Level Estimated
02:51AM 52.5439 -1.4698 149° Southeast  Level Estimated
02:52AM 52.4931 -1.4205 149° Southeast  Level Estimated
02:53AM 52.4422 -1.3713 149° Southeast  Level Estimated
02:54AM 52.3914 -1.3222 149° Southeast  Level Estimated
02:55AM 52.3572 -1.2892 150° Southeast  Level Estimated
02:56AM 52.3230 -1.2563 150° Southeast  Level Estimated
02:57AM 52.2887 -1.2234 150° Southeast  Level Estimated
02:58AM 52.2545 -1.1906 150° Southeast  Level Estimated
02:59AM 52.2203 -1.1578 150° Southeast  Level Estimated
03:00AM 52.1860 -1.1251 150° Southeast  Level Estimated
03:01AM 52.1517 -1.0924 150° Southeast  Level Estimated
03:02AM 52.1175 -1.0598 150° Southeast  Level Estimated
03:03AM 52.0832 -1.0272 150° Southeast  Level Estimated
03:04AM 52.0489 -0.9947 150° Southeast  Level Estimated
03:05AM 52.0146 -0.9623 150° Southeast  Level Estimated
03:06AM 51.9803 -0.9298 150° Southeast  Level Estimated
03:07AM 51.9460 -0.8975 150° Southeast  Level Estimated
03:08AM 51.9116 -0.8651 150° Southeast  Level Estimated
03:09AM 51.8773 -0.8329 150° Southeast  Level Estimated
03:10AM 51.8429 -0.8007 150° Southeast  Level Estimated
03:11AM 51.8079 -0.7679 150° Southeast  Level Estimated
03:12AM 51.7729 -0.7352 150° Southeast  Level Estimated
03:13AM 51.7379 -0.7025 150° Southeast  Level Estimated
03:14AM 51.7029 -0.6699 150° Southeast  Level Estimated
03:15AM 51.6679 -0.6374 150° Southeast  Level Estimated
03:16AM 51.6329 -0.6048 150° Southeast  Level Estimated
03:17AM 51.5978 -0.5724 150° Southeast  Level Estimated
03:18AM 51.5628 -0.5400 150° Southeast  Level Estimated
03:19AM 51.5295 -0.5093 150° Southeast  Level Estimated
03:20AM 51.4963 -0.4787 150° Southeast  Level Estimated
03:21AM 51.4775 -0.4614 150° Southeast  Level Estimated
03:22AM 51.4775 -0.4614 90° East  Level Estimated
03:23AM 51.4775 -0.4614 90° East  Level Estimated
03:24AM 51.4775 -0.4614 90° East  Level Estimated
03:25AM 51.4775 -0.4614 90° East  Level Estimated
03:26AM 51.4775 -0.4614 90° East  Level Estimated
03:27AM 51.4775 -0.4614 90° East  Level Estimated
03:28AM 51.4775 -0.4614 90° East  Level Estimated
03:29AM 51.4775 -0.4614 90° East  Level Estimated
03:30AM 51.4775 -0.4614 90° East  Level Estimated
03:31AM 51.4775 -0.4614 90° East  Level Estimated